X  CloseMetar Aviation Weather Data     YMAV Avalon Airport

Temperature

14°C Temperature

8°C Dewpoint

67% Humidity



Wind

21 KM/H

13 MPH

 6 M/S

11 KTS



190°
Due South
Current Conditions

Overcast Overcast
Pressure 1014.92 (hPa) - 29.97 (in)
Visibility 6.2 (mi) - 10 (km)
Airport
Airport-code YMAV

Location Avalon Airport 44 (km)

Metar:
YMAV 051600Z AUTO 19011KT 9999 // OVC034 14/08 Q1015

Time: 06-03-2021 03:00